sensor_id;sensor_type;location;lat;lon;timestamp;temperature;humidity
24436;DHT22;12616;52.470;13.436;2022-12-05T00:00:49;3.00;99.90
24436;DHT22;12616;52.470;13.436;2022-12-05T00:03:18;2.70;99.90
24436;DHT22;12616;52.470;13.436;2022-12-05T00:05:47;3.00;99.90
24436;DHT22;12616;52.470;13.436;2022-12-05T00:08:13;3.00;99.90
24436;DHT22;12616;52.470;13.436;2022-12-05T00:10:40;3.00;99.90
24436;DHT22;12616;52.470;13.436;2022-12-05T00:13:07;3.10;99.90
24436;DHT22;12616;52.470;13.436;2022-12-05T00:15:36;2.90;99.90
24436;DHT22;12616;52.470;13.436;2022-12-05T00:18:03;3.50;99.90
24436;DHT22;12616;52.470;13.436;2022-12-05T00:20:31;2.80;99.90
24436;DHT22;12616;52.470;13.436;2022-12-05T00:22:58;3.00;99.90
24436;DHT22;12616;52.470;13.436;2022-12-05T00:25:25;3.00;99.90
24436;DHT22;12616;52.470;13.436;2022-12-05T00:27:52;3.00;99.90
24436;DHT22;12616;52.470;13.436;2022-12-05T00:30:19;3.00;99.90
24436;DHT22;12616;52.470;13.436;2022-12-05T00:32:46;3.00;99.90
24436;DHT22;12616;52.470;13.436;2022-12-05T00:35:13;3.40;99.90
24436;DHT22;12616;52.470;13.436;2022-12-05T00:37:41;3.10;99.90
24436;DHT22;12616;52.470;13.436;2022-12-05T00:40:09;4.60;99.90
24436;DHT22;12616;52.470;13.436;2022-12-05T00:42:36;3.10;99.90
24436;DHT22;12616;52.470;13.436;2022-12-05T00:45:03;3.00;99.90
24436;DHT22;12616;52.470;13.436;2022-12-05T00:47:33;3.10;99.90
24436;DHT22;12616;52.470;13.436;2022-12-05T00:52:27;3.10;99.90
24436;DHT22;12616;52.470;13.436;2022-12-05T00:54:55;3.00;99.90
24436;DHT22;12616;52.470;13.436;2022-12-05T00:57:22;3.20;99.90
24436;DHT22;12616;52.470;13.436;2022-12-05T00:59:49;3.10;99.90
24436;DHT22;12616;52.470;13.436;2022-12-05T01:02:16;3.10;99.90
24436;DHT22;12616;52.470;13.436;2022-12-05T01:04:43;2.70;99.90
24436;DHT22;12616;52.470;13.436;2022-12-05T01:07:09;3.10;99.90
24436;DHT22;12616;52.470;13.436;2022-12-05T01:09:36;3.00;99.90
24436;DHT22;12616;52.470;13.436;2022-12-05T01:12:05;3.10;99.90
24436;DHT22;12616;52.470;13.436;2022-12-05T01:14:32;3.10;99.90
24436;DHT22;12616;52.470;13.436;2022-12-05T01:16:59;3.10;99.90
24436;DHT22;12616;52.470;13.436;2022-12-05T01:19:28;3.10;99.90
24436;DHT22;12616;52.470;13.436;2022-12-05T01:21:56;2.80;99.90
24436;DHT22;12616;52.470;13.436;2022-12-05T01:24:24;3.00;99.90
24436;DHT22;12616;52.470;13.436;2022-12-05T01:26:52;3.10;99.90
24436;DHT22;12616;52.470;13.436;2022-12-05T01:29:21;3.30;99.90
24436;DHT22;12616;52.470;13.436;2022-12-05T01:31:49;3.10;99.90
24436;DHT22;12616;52.470;13.436;2022-12-05T01:34:17;2.80;99.90
24436;DHT22;12616;52.470;13.436;2022-12-05T01:36:44;3.30;99.90
24436;DHT22;12616;52.470;13.436;2022-12-05T01:39:12;3.10;99.90
24436;DHT22;12616;52.470;13.436;2022-12-05T01:41:40;3.10;99.90
24436;DHT22;12616;52.470;13.436;2022-12-05T01:47:16;3.10;99.90
24436;DHT22;12616;52.470;13.436;2022-12-05T01:49:44;3.10;99.90
24436;DHT22;12616;52.470;13.436;2022-12-05T01:52:14;3.10;99.90
24436;DHT22;12616;52.470;13.436;2022-12-05T01:54:45;3.10;99.90
24436;DHT22;12616;52.470;13.436;2022-12-05T01:57:14;3.00;99.90
24436;DHT22;12616;52.470;13.436;2022-12-05T01:59:44;2.80;99.90
24436;DHT22;12616;52.470;13.436;2022-12-05T02:02:12;2.80;99.90
24436;DHT22;12616;52.470;13.436;2022-12-05T02:04:53;3.10;99.90
24436;DHT22;12616;52.470;13.436;2022-12-05T02:09:50;3.00;99.90
24436;DHT22;12616;52.470;13.436;2022-12-05T02:12:18;3.10;99.90
24436;DHT22;12616;52.470;13.436;2022-12-05T02:14:50;3.20;99.90
24436;DHT22;12616;52.470;13.436;2022-12-05T02:17:28;3.10;99.90
24436;DHT22;12616;52.470;13.436;2022-12-05T02:20:29;3.20;99.90
24436;DHT22;12616;52.470;13.436;2022-12-05T02:29:26;3.20;99.90
24436;DHT22;12616;52.470;13.436;2022-12-05T02:32:03;3.40;99.90
24436;DHT22;12616;52.470;13.436;2022-12-05T02:34:37;2.80;99.90
24436;DHT22;12616;52.470;13.436;2022-12-05T02:37:10;3.30;99.90
24436;DHT22;12616;52.470;13.436;2022-12-05T02:39:43;3.00;99.90
24436;DHT22;12616;52.470;13.436;2022-12-05T02:42:16;3.00;99.90
24436;DHT22;12616;52.470;13.436;2022-12-05T02:44:47;3.30;99.90
24436;DHT22;12616;52.470;13.436;2022-12-05T02:47:20;3.20;99.90
24436;DHT22;12616;52.470;13.436;2022-12-05T02:49:49;3.70;99.90
24436;DHT22;12616;52.470;13.436;2022-12-05T02:52:17;3.30;99.90
24436;DHT22;12616;52.470;13.436;2022-12-05T02:54:47;3.10;99.90
24436;DHT22;12616;52.470;13.436;2022-12-05T02:57:16;2.80;99.90
24436;DHT22;12616;52.470;13.436;2022-12-05T02:59:43;2.80;99.90
24436;DHT22;12616;52.470;13.436;2022-12-05T03:02:24;3.10;99.90
24436;DHT22;12616;52.470;13.436;2022-12-05T03:04:52;3.10;99.90
24436;DHT22;12616;52.470;13.436;2022-12-05T03:07:22;3.20;99.90
24436;DHT22;12616;52.470;13.436;2022-12-05T03:09:55;3.40;99.90
24436;DHT22;12616;52.470;13.436;2022-12-05T03:12:24;3.00;99.90
24436;DHT22;12616;52.470;13.436;2022-12-05T03:14:55;3.10;99.90
24436;DHT22;12616;52.470;13.436;2022-12-05T03:17:29;2.80;99.90
24436;DHT22;12616;52.470;13.436;2022-12-05T03:19:58;3.20;99.90
24436;DHT22;12616;52.470;13.436;2022-12-05T03:22:32;3.10;99.90
24436;DHT22;12616;52.470;13.436;2022-12-05T03:25:02;3.10;99.90
24436;DHT22;12616;52.470;13.436;2022-12-05T03:27:32;3.20;99.90
24436;DHT22;12616;52.470;13.436;2022-12-05T03:30:05;3.10;99.90
24436;DHT22;12616;52.470;13.436;2022-12-05T03:32:38;3.40;99.90
24436;DHT22;12616;52.470;13.436;2022-12-05T03:35:11;3.20;99.90
24436;DHT22;12616;52.470;13.436;2022-12-05T03:37:44;3.20;99.90
24436;DHT22;12616;52.470;13.436;2022-12-05T03:40:22;2.90;99.90
24436;DHT22;12616;52.470;13.436;2022-12-05T03:42:54;3.10;99.90
24436;DHT22;12616;52.470;13.436;2022-12-05T03:45:29;3.20;99.90
24436;DHT22;12616;52.470;13.436;2022-12-05T03:48:10;3.20;99.90
24436;DHT22;12616;52.470;13.436;2022-12-05T03:50:40;3.10;99.90
24436;DHT22;12616;52.470;13.436;2022-12-05T03:53:12;3.20;99.90
24436;DHT22;12616;52.470;13.436;2022-12-05T03:55:40;3.10;99.90
24436;DHT22;12616;52.470;13.436;2022-12-05T03:58:11;3.10;99.90
24436;DHT22;12616;52.470;13.436;2022-12-05T04:00:44;3.10;99.90
24436;DHT22;12616;52.470;13.436;2022-12-05T04:03:17;3.10;99.90
24436;DHT22;12616;52.470;13.436;2022-12-05T04:05:48;3.20;99.90
24436;DHT22;12616;52.470;13.436;2022-12-05T04:08:20;3.00;99.90
24436;DHT22;12616;52.470;13.436;2022-12-05T04:10:50;3.10;99.90
24436;DHT22;12616;52.470;13.436;2022-12-05T04:13:32;3.20;99.90
24436;DHT22;12616;52.470;13.436;2022-12-05T04:16:02;3.50;99.90
24436;DHT22;12616;52.470;13.436;2022-12-05T04:18:55;3.20;99.90
24436;DHT22;12616;52.470;13.436;2022-12-05T04:21:28;3.20;99.90
24436;DHT22;12616;52.470;13.436;2022-12-05T04:24:05;3.20;99.90
24436;DHT22;12616;52.470;13.436;2022-12-05T04:27:00;3.10;99.90
24436;DHT22;12616;52.470;13.436;2022-12-05T04:29:33;3.10;99.90
24436;DHT22;12616;52.470;13.436;2022-12-05T04:32:06;3.40;99.90
24436;DHT22;12616;52.470;13.436;2022-12-05T04:34:37;2.60;99.90
24436;DHT22;12616;52.470;13.436;2022-12-05T04:37:09;3.40;99.90
24436;DHT22;12616;52.470;13.436;2022-12-05T04:39:41;3.60;99.90
24436;DHT22;12616;52.470;13.436;2022-12-05T04:42:14;3.10;99.90
24436;DHT22;12616;52.470;13.436;2022-12-05T04:44:56;3.10;99.90
24436;DHT22;12616;52.470;13.436;2022-12-05T04:47:29;2.90;99.90
24436;DHT22;12616;52.470;13.436;2022-12-05T04:49:59;3.20;99.90
24436;DHT22;12616;52.470;13.436;2022-12-05T04:52:28;3.20;99.90
24436;DHT22;12616;52.470;13.436;2022-12-05T04:55:00;3.20;99.90
24436;DHT22;12616;52.470;13.436;2022-12-05T04:57:34;3.20;99.90
24436;DHT22;12616;52.470;13.436;2022-12-05T05:00:03;2.20;99.90
24436;DHT22;12616;52.470;13.436;2022-12-05T05:02:33;3.20;99.90
24436;DHT22;12616;52.470;13.436;2022-12-05T05:05:09;3.10;99.90
24436;DHT22;12616;52.470;13.436;2022-12-05T05:07:42;3.20;99.90
24436;DHT22;12616;52.470;13.436;2022-12-05T05:10:13;4.10;99.90
24436;DHT22;12616;52.470;13.436;2022-12-05T05:12:42;3.20;99.90
24436;DHT22;12616;52.470;13.436;2022-12-05T05:15:09;3.20;99.90
24436;DHT22;12616;52.470;13.436;2022-12-05T05:17:36;3.10;99.90
24436;DHT22;12616;52.470;13.436;2022-12-05T05:20:08;3.80;99.90
24436;DHT22;12616;52.470;13.436;2022-12-05T05:22:52;3.20;99.90
24436;DHT22;12616;52.470;13.436;2022-12-05T05:25:20;3.40;99.90
24436;DHT22;12616;52.470;13.436;2022-12-05T05:27:49;3.20;99.90
24436;DHT22;12616;52.470;13.436;2022-12-05T05:30:17;4.00;99.90
24436;DHT22;12616;52.470;13.436;2022-12-05T05:32:44;3.20;99.90
24436;DHT22;12616;52.470;13.436;2022-12-05T05:35:14;2.60;99.90
24436;DHT22;12616;52.470;13.436;2022-12-05T05:37:41;3.30;99.90
24436;DHT22;12616;52.470;13.436;2022-12-05T05:40:10;3.20;99.90
24436;DHT22;12616;52.470;13.436;2022-12-05T05:42:41;3.30;99.90
24436;DHT22;12616;52.470;13.436;2022-12-05T05:45:10;3.20;99.90
24436;DHT22;12616;52.470;13.436;2022-12-05T05:47:38;3.20;99.90
24436;DHT22;12616;52.470;13.436;2022-12-05T05:50:06;3.10;99.90
24436;DHT22;12616;52.470;13.436;2022-12-05T05:52:36;3.20;99.90
24436;DHT22;12616;52.470;13.436;2022-12-05T05:55:06;2.90;99.90
24436;DHT22;12616;52.470;13.436;2022-12-05T05:57:33;3.30;99.90
24436;DHT22;12616;52.470;13.436;2022-12-05T06:00:02;3.30;99.90
24436;DHT22;12616;52.470;13.436;2022-12-05T06:02:33;3.20;99.90
24436;DHT22;12616;52.470;13.436;2022-12-05T06:05:04;2.80;99.90
24436;DHT22;12616;52.470;13.436;2022-12-05T06:21:26;3.40;99.90
24436;DHT22;12616;52.470;13.436;2022-12-05T06:23:54;3.20;99.90
24436;DHT22;12616;52.470;13.436;2022-12-05T06:26:21;3.10;99.90
24436;DHT22;12616;52.470;13.436;2022-12-05T06:28:50;3.30;99.90
24436;DHT22;12616;52.470;13.436;2022-12-05T06:31:19;3.20;99.90
24436;DHT22;12616;52.470;13.436;2022-12-05T06:33:48;4.30;99.90
24436;DHT22;12616;52.470;13.436;2022-12-05T06:36:17;3.60;99.90
24436;DHT22;12616;52.470;13.436;2022-12-05T06:38:44;3.40;99.90
24436;DHT22;12616;52.470;13.436;2022-12-05T06:41:13;2.90;99.90
24436;DHT22;12616;52.470;13.436;2022-12-05T06:43:40;3.10;99.90
24436;DHT22;12616;52.470;13.436;2022-12-05T06:46:11;3.20;99.90
24436;DHT22;12616;52.470;13.436;2022-12-05T06:48:38;3.40;99.90
24436;DHT22;12616;52.470;13.436;2022-12-05T06:51:08;3.40;99.90
24436;DHT22;12616;52.470;13.436;2022-12-05T06:53:35;3.30;99.90
24436;DHT22;12616;52.470;13.436;2022-12-05T06:56:04;3.30;99.90
24436;DHT22;12616;52.470;13.436;2022-12-05T06:58:32;3.30;99.90
24436;DHT22;12616;52.470;13.436;2022-12-05T07:00:59;2.90;99.90
24436;DHT22;12616;52.470;13.436;2022-12-05T07:03:47;3.20;99.90
24436;DHT22;12616;52.470;13.436;2022-12-05T07:06:15;3.00;99.90
24436;DHT22;12616;52.470;13.436;2022-12-05T07:08:42;3.30;99.90
24436;DHT22;12616;52.470;13.436;2022-12-05T07:11:09;3.50;99.90
24436;DHT22;12616;52.470;13.436;2022-12-05T07:13:36;3.20;99.90
24436;DHT22;12616;52.470;13.436;2022-12-05T07:16:03;3.40;99.90
24436;DHT22;12616;52.470;13.436;2022-12-05T07:18:31;3.20;99.90
24436;DHT22;12616;52.470;13.436;2022-12-05T07:21:01;3.60;99.90
24436;DHT22;12616;52.470;13.436;2022-12-05T07:23:28;3.30;99.90
24436;DHT22;12616;52.470;13.436;2022-12-05T07:25:55;3.20;99.90
24436;DHT22;12616;52.470;13.436;2022-12-05T07:28:22;3.50;99.90
24436;DHT22;12616;52.470;13.436;2022-12-05T07:30:58;3.20;99.90
24436;DHT22;12616;52.470;13.436;2022-12-05T07:33:25;3.30;99.90
24436;DHT22;12616;52.470;13.436;2022-12-05T07:35:52;3.20;99.90
24436;DHT22;12616;52.470;13.436;2022-12-05T07:38:20;3.80;99.90
24436;DHT22;12616;52.470;13.436;2022-12-05T07:40:47;3.50;99.90
24436;DHT22;12616;52.470;13.436;2022-12-05T07:43:13;3.30;99.90
24436;DHT22;12616;52.470;13.436;2022-12-05T07:45:40;3.40;99.90
24436;DHT22;12616;52.470;13.436;2022-12-05T07:48:07;3.30;99.90
24436;DHT22;12616;52.470;13.436;2022-12-05T07:50:35;3.00;99.90
24436;DHT22;12616;52.470;13.436;2022-12-05T07:53:02;3.30;99.90
24436;DHT22;12616;52.470;13.436;2022-12-05T07:57:57;3.30;99.90
24436;DHT22;12616;52.470;13.436;2022-12-05T08:00:24;3.50;99.90
24436;DHT22;12616;52.470;13.436;2022-12-05T08:02:51;3.40;99.90
24436;DHT22;12616;52.470;13.436;2022-12-05T08:07:45;3.30;99.90
24436;DHT22;12616;52.470;13.436;2022-12-05T08:10:11;3.20;99.90
24436;DHT22;12616;52.470;13.436;2022-12-05T08:12:39;3.40;99.90
24436;DHT22;12616;52.470;13.436;2022-12-05T08:15:08;3.30;99.90
24436;DHT22;12616;52.470;13.436;2022-12-05T08:20:02;3.30;99.90
24436;DHT22;12616;52.470;13.436;2022-12-05T08:22:29;3.30;99.90
24436;DHT22;12616;52.470;13.436;2022-12-05T08:24:56;3.30;99.90
24436;DHT22;12616;52.470;13.436;2022-12-05T08:27:23;3.30;99.90
24436;DHT22;12616;52.470;13.436;2022-12-05T08:29:52;3.40;99.90
24436;DHT22;12616;52.470;13.436;2022-12-05T08:34:47;3.30;99.90
24436;DHT22;12616;52.470;13.436;2022-12-05T08:44:35;3.00;99.90
24436;DHT22;12616;52.470;13.436;2022-12-05T08:47:03;3.30;99.90
24436;DHT22;12616;52.470;13.436;2022-12-05T08:59:35;3.30;99.90
24436;DHT22;12616;52.470;13.436;2022-12-05T09:17:18;3.40;99.90
24436;DHT22;12616;52.470;13.436;2022-12-05T09:19:45;3.30;99.90
24436;DHT22;12616;52.470;13.436;2022-12-05T09:22:16;3.90;99.90
24436;DHT22;12616;52.470;13.436;2022-12-05T09:35:02;3.30;99.90
24436;DHT22;12616;52.470;13.436;2022-12-05T09:43:11;3.40;99.90
24436;DHT22;12616;52.470;13.436;2022-12-05T09:45:56;3.40;99.90
24436;DHT22;12616;52.470;13.436;2022-12-05T09:59:11;3.40;99.90
24436;DHT22;12616;52.470;13.436;2022-12-05T10:01:44;3.40;99.90
24436;DHT22;12616;52.470;13.436;2022-12-05T10:07:18;3.40;99.90
24436;DHT22;12616;52.470;13.436;2022-12-05T10:09:57;3.40;99.90
24436;DHT22;12616;52.470;13.436;2022-12-05T10:12:45;3.40;99.90
24436;DHT22;12616;52.470;13.436;2022-12-05T10:15:16;3.50;99.90
24436;DHT22;12616;52.470;13.436;2022-12-05T10:17:49;3.50;99.90
24436;DHT22;12616;52.470;13.436;2022-12-05T10:20:25;3.50;99.90
24436;DHT22;12616;52.470;13.436;2022-12-05T10:22:55;3.40;99.90
24436;DHT22;12616;52.470;13.436;2022-12-05T10:25:26;3.50;99.90
24436;DHT22;12616;52.470;13.436;2022-12-05T10:28:00;3.60;99.90
24436;DHT22;12616;52.470;13.436;2022-12-05T10:30:30;3.50;99.90
24436;DHT22;12616;52.470;13.436;2022-12-05T10:33:02;3.40;99.90
24436;DHT22;12616;52.470;13.436;2022-12-05T10:35:33;3.50;99.90
24436;DHT22;12616;52.470;13.436;2022-12-05T10:38:06;3.50;99.90
24436;DHT22;12616;52.470;13.436;2022-12-05T10:40:40;3.60;99.90
24436;DHT22;12616;52.470;13.436;2022-12-05T10:43:10;3.60;99.90
24436;DHT22;12616;52.470;13.436;2022-12-05T10:45:41;3.60;99.90
24436;DHT22;12616;52.470;13.436;2022-12-05T10:48:11;3.70;99.90
24436;DHT22;12616;52.470;13.436;2022-12-05T10:50:39;3.60;99.90
24436;DHT22;12616;52.470;13.436;2022-12-05T10:53:15;3.70;99.90
24436;DHT22;12616;52.470;13.436;2022-12-05T10:58:53;3.60;99.90
24436;DHT22;12616;52.470;13.436;2022-12-05T11:01:47;3.60;99.90
24436;DHT22;12616;52.470;13.436;2022-12-05T11:07:25;3.60;99.90
24436;DHT22;12616;52.470;13.436;2022-12-05T11:23:50;3.70;99.90
24436;DHT22;12616;52.470;13.436;2022-12-05T11:26:31;3.80;99.90
24436;DHT22;12616;52.470;13.436;2022-12-05T11:28:59;3.40;99.90
24436;DHT22;12616;52.470;13.436;2022-12-05T11:31:38;3.90;99.90
24436;DHT22;12616;52.470;13.436;2022-12-05T11:34:16;3.50;99.90
24436;DHT22;12616;52.470;13.436;2022-12-05T11:36:51;3.60;99.90
24436;DHT22;12616;52.470;13.436;2022-12-05T11:42:15;3.60;99.90
24436;DHT22;12616;52.470;13.436;2022-12-05T11:45:23;3.70;99.90
24436;DHT22;12616;52.470;13.436;2022-12-05T11:48:16;3.60;99.90
24436;DHT22;12616;52.470;13.436;2022-12-05T11:51:13;3.70;99.90
24436;DHT22;12616;52.470;13.436;2022-12-05T11:54:05;3.80;99.90
24436;DHT22;12616;52.470;13.436;2022-12-05T11:56:41;3.80;99.90
24436;DHT22;12616;52.470;13.436;2022-12-05T11:59:33;3.70;99.90
24436;DHT22;12616;52.470;13.436;2022-12-05T12:02:14;3.80;99.90
24436;DHT22;12616;52.470;13.436;2022-12-05T12:04:57;3.60;99.90
24436;DHT22;12616;52.470;13.436;2022-12-05T12:07:44;3.70;99.90
24436;DHT22;12616;52.470;13.436;2022-12-05T12:10:22;4.00;99.90
24436;DHT22;12616;52.470;13.436;2022-12-05T12:13:02;3.60;99.90
24436;DHT22;12616;52.470;13.436;2022-12-05T12:18:58;4.00;99.90
24436;DHT22;12616;52.470;13.436;2022-12-05T12:21:58;3.60;99.90
24436;DHT22;12616;52.470;13.436;2022-12-05T12:28:29;3.60;99.90
24436;DHT22;12616;52.470;13.436;2022-12-05T12:32:07;3.70;99.90
24436;DHT22;12616;52.470;13.436;2022-12-05T12:41:25;3.80;99.90
24436;DHT22;12616;52.470;13.436;2022-12-05T12:48:00;3.80;99.90
24436;DHT22;12616;52.470;13.436;2022-12-05T13:06:55;3.80;99.90
24436;DHT22;12616;52.470;13.436;2022-12-05T13:09:29;3.80;99.90
24436;DHT22;12616;52.470;13.436;2022-12-05T13:12:00;3.70;99.90
24436;DHT22;12616;52.470;13.436;2022-12-05T13:14:31;3.80;99.90
24436;DHT22;12616;52.470;13.436;2022-12-05T13:17:00;3.70;99.90
24436;DHT22;12616;52.470;13.436;2022-12-05T13:19:29;3.80;99.90
24436;DHT22;12616;52.470;13.436;2022-12-05T13:27:03;3.90;99.90
24436;DHT22;12616;52.470;13.436;2022-12-05T13:29:37;3.80;99.90
24436;DHT22;12616;52.470;13.436;2022-12-05T13:32:28;3.90;99.90
24436;DHT22;12616;52.470;13.436;2022-12-05T13:43:12;4.00;99.90
24436;DHT22;12616;52.470;13.436;2022-12-05T13:46:01;4.10;99.90
24436;DHT22;12616;52.470;13.436;2022-12-05T13:48:33;4.00;99.90
24436;DHT22;12616;52.470;13.436;2022-12-05T13:53:57;4.00;99.90
24436;DHT22;12616;52.470;13.436;2022-12-05T13:56:51;4.00;99.90
24436;DHT22;12616;52.470;13.436;2022-12-05T14:02:47;4.00;99.90
24436;DHT22;12616;52.470;13.436;2022-12-05T14:05:42;4.00;99.90
24436;DHT22;12616;52.470;13.436;2022-12-05T14:19:35;4.10;99.90
24436;DHT22;12616;52.470;13.436;2022-12-05T14:25:54;4.10;99.90
24436;DHT22;12616;52.470;13.436;2022-12-05T14:28:55;4.20;99.90
24436;DHT22;12616;52.470;13.436;2022-12-05T14:31:40;4.00;99.90
24436;DHT22;12616;52.470;13.436;2022-12-05T14:34:29;4.00;99.90
24436;DHT22;12616;52.470;13.436;2022-12-05T14:37:07;4.00;99.90
24436;DHT22;12616;52.470;13.436;2022-12-05T14:42:36;4.10;99.90
24436;DHT22;12616;52.470;13.436;2022-12-05T14:45:31;4.10;99.90
24436;DHT22;12616;52.470;13.436;2022-12-05T14:48:26;4.10;99.90
24436;DHT22;12616;52.470;13.436;2022-12-05T14:51:41;4.10;99.90
24436;DHT22;12616;52.470;13.436;2022-12-05T14:56:34;4.10;99.90
24436;DHT22;12616;52.470;13.436;2022-12-05T14:59:33;4.10;99.90
24436;DHT22;12616;52.470;13.436;2022-12-05T15:02:26;4.10;99.90
24436;DHT22;12616;52.470;13.436;2022-12-05T15:05:41;4.20;99.90
24436;DHT22;12616;52.470;13.436;2022-12-05T15:08:15;4.20;99.90
24436;DHT22;12616;52.470;13.436;2022-12-05T15:10:51;4.20;99.90
24436;DHT22;12616;52.470;13.436;2022-12-05T15:16:11;4.20;99.90
24436;DHT22;12616;52.470;13.436;2022-12-05T15:21:55;4.10;99.90
24436;DHT22;12616;52.470;13.436;2022-12-05T15:26:57;4.20;99.90
24436;DHT22;12616;52.470;13.436;2022-12-05T15:29:27;4.20;99.90
24436;DHT22;12616;52.470;13.436;2022-12-05T15:32:12;4.20;99.90
24436;DHT22;12616;52.470;13.436;2022-12-05T15:34:44;4.20;99.90
24436;DHT22;12616;52.470;13.436;2022-12-05T15:37:16;4.20;99.90
24436;DHT22;12616;52.470;13.436;2022-12-05T15:39:54;4.20;99.90
24436;DHT22;12616;52.470;13.436;2022-12-05T15:42:35;4.10;99.90
24436;DHT22;12616;52.470;13.436;2022-12-05T15:51:59;4.30;99.90
24436;DHT22;12616;52.470;13.436;2022-12-05T16:04:49;4.30;99.90
24436;DHT22;12616;52.470;13.436;2022-12-05T16:05:43;4.30;99.90
24436;DHT22;12616;52.470;13.436;2022-12-05T16:08:54;4.30;99.90
24436;DHT22;12616;52.470;13.436;2022-12-05T16:13:54;4.30;99.90
24436;DHT22;12616;52.470;13.436;2022-12-05T16:16:25;4.20;99.90
24436;DHT22;12616;52.470;13.436;2022-12-05T16:18:55;4.30;99.90
24436;DHT22;12616;52.470;13.436;2022-12-05T16:21:33;4.30;99.90
24436;DHT22;12616;52.470;13.436;2022-12-05T16:24:07;4.20;99.90
24436;DHT22;12616;52.470;13.436;2022-12-05T16:26:38;4.50;99.90
24436;DHT22;12616;52.470;13.436;2022-12-05T16:34:05;4.30;99.90
24436;DHT22;12616;52.470;13.436;2022-12-05T16:39:03;4.30;99.90
24436;DHT22;12616;52.470;13.436;2022-12-05T16:46:45;4.30;99.90
24436;DHT22;12616;52.470;13.436;2022-12-05T16:49:18;4.30;99.90
24436;DHT22;12616;52.470;13.436;2022-12-05T16:51:53;4.30;99.90
24436;DHT22;12616;52.470;13.436;2022-12-05T16:54:22;4.30;99.90
24436;DHT22;12616;52.470;13.436;2022-12-05T16:56:49;4.40;99.90
24436;DHT22;12616;52.470;13.436;2022-12-05T16:59:21;4.50;99.90
24436;DHT22;12616;52.470;13.436;2022-12-05T17:01:49;4.30;99.90
24436;DHT22;12616;52.470;13.436;2022-12-05T17:04:16;4.20;99.90
24436;DHT22;12616;52.470;13.436;2022-12-05T17:06:43;4.20;99.90
24436;DHT22;12616;52.470;13.436;2022-12-05T17:09:11;4.00;99.90
24436;DHT22;12616;52.470;13.436;2022-12-05T17:11:41;4.00;99.90
24436;DHT22;12616;52.470;13.436;2022-12-05T17:14:12;5.10;99.90
24436;DHT22;12616;52.470;13.436;2022-12-05T17:16:40;4.10;99.90
24436;DHT22;12616;52.470;13.436;2022-12-05T17:19:08;4.60;99.90
24436;DHT22;12616;52.470;13.436;2022-12-05T17:21:39;4.40;99.90
24436;DHT22;12616;52.470;13.436;2022-12-05T17:24:15;4.00;99.90
24436;DHT22;12616;52.470;13.436;2022-12-05T17:26:56;4.40;99.90
24436;DHT22;12616;52.470;13.436;2022-12-05T17:29:44;4.50;99.90
24436;DHT22;12616;52.470;13.436;2022-12-05T17:39:23;4.50;99.90
24436;DHT22;12616;52.470;13.436;2022-12-05T17:53:07;4.50;99.90
24436;DHT22;12616;52.470;13.436;2022-12-05T18:08:23;4.60;99.90
24436;DHT22;12616;52.470;13.436;2022-12-05T18:20:25;4.60;99.90
24436;DHT22;12616;52.470;13.436;2022-12-05T18:29:31;4.60;99.90
24436;DHT22;12616;52.470;13.436;2022-12-05T18:47:06;4.60;99.90
24436;DHT22;12616;52.470;13.436;2022-12-05T19:06:24;4.60;99.90
24436;DHT22;12616;52.470;13.436;2022-12-05T19:09:33;4.60;99.90
24436;DHT22;12616;52.470;13.436;2022-12-05T19:12:20;4.50;99.90
24436;DHT22;12616;52.470;13.436;2022-12-05T19:18:17;4.60;99.90
24436;DHT22;12616;52.470;13.436;2022-12-05T19:32:10;4.70;99.90
24436;DHT22;12616;52.470;13.436;2022-12-05T19:35:15;4.70;99.90
24436;DHT22;12616;52.470;13.436;2022-12-05T19:46:22;4.60;99.90
24436;DHT22;12616;52.470;13.436;2022-12-05T19:49:10;4.70;99.90
24436;DHT22;12616;52.470;13.436;2022-12-05T19:54:40;4.60;99.90
24436;DHT22;12616;52.470;13.436;2022-12-05T20:12:49;4.40;99.90
24436;DHT22;12616;52.470;13.436;2022-12-05T20:41:12;4.30;99.90
24436;DHT22;12616;52.470;13.436;2022-12-05T20:43:46;4.30;99.90
24436;DHT22;12616;52.470;13.436;2022-12-05T20:46:17;4.20;99.90
24436;DHT22;12616;52.470;13.436;2022-12-05T20:48:45;4.20;99.90
24436;DHT22;12616;52.470;13.436;2022-12-05T20:51:45;4.10;99.90
24436;DHT22;12616;52.470;13.436;2022-12-05T21:16:50;4.10;99.90
24436;DHT22;12616;52.470;13.436;2022-12-05T21:19:17;4.10;99.90
24436;DHT22;12616;52.470;13.436;2022-12-05T21:21:44;4.10;99.90
24436;DHT22;12616;52.470;13.436;2022-12-05T21:24:11;4.10;99.90
24436;DHT22;12616;52.470;13.436;2022-12-05T21:26:39;4.20;99.90
24436;DHT22;12616;52.470;13.436;2022-12-05T21:29:06;4.10;99.90
24436;DHT22;12616;52.470;13.436;2022-12-05T21:31:37;3.70;99.90
24436;DHT22;12616;52.470;13.436;2022-12-05T21:34:06;3.80;99.90
24436;DHT22;12616;52.470;13.436;2022-12-05T21:36:35;4.10;99.90
24436;DHT22;12616;52.470;13.436;2022-12-05T21:39:03;4.10;99.90
24436;DHT22;12616;52.470;13.436;2022-12-05T21:41:31;3.60;99.90
24436;DHT22;12616;52.470;13.436;2022-12-05T21:44:02;4.00;99.90
24436;DHT22;12616;52.470;13.436;2022-12-05T21:48:57;4.00;99.90
24436;DHT22;12616;52.470;13.436;2022-12-05T21:51:25;3.90;99.90
24436;DHT22;12616;52.470;13.436;2022-12-05T21:53:53;3.90;99.90
24436;DHT22;12616;52.470;13.436;2022-12-05T21:56:23;3.60;99.90
24436;DHT22;12616;52.470;13.436;2022-12-05T21:58:57;3.10;99.90
24436;DHT22;12616;52.470;13.436;2022-12-05T22:01:27;3.90;99.90
24436;DHT22;12616;52.470;13.436;2022-12-05T22:04:00;3.90;99.90
24436;DHT22;12616;52.470;13.436;2022-12-05T22:06:28;3.80;99.90
24436;DHT22;12616;52.470;13.436;2022-12-05T22:08:58;3.60;99.90
24436;DHT22;12616;52.470;13.436;2022-12-05T22:11:29;3.40;99.90
24436;DHT22;12616;52.470;13.436;2022-12-05T22:13:57;2.70;99.90
24436;DHT22;12616;52.470;13.436;2022-12-05T22:16:25;3.80;99.90
24436;DHT22;12616;52.470;13.436;2022-12-05T22:18:53;3.70;99.90
24436;DHT22;12616;52.470;13.436;2022-12-05T22:21:23;3.70;99.90
24436;DHT22;12616;52.470;13.436;2022-12-05T22:23:52;4.10;99.90
24436;DHT22;12616;52.470;13.436;2022-12-05T22:26:21;3.80;99.90
24436;DHT22;12616;52.470;13.436;2022-12-05T22:28:50;3.70;99.90
24436;DHT22;12616;52.470;13.436;2022-12-05T22:31:18;3.60;99.90
24436;DHT22;12616;52.470;13.436;2022-12-05T22:33:47;4.50;99.90
24436;DHT22;12616;52.470;13.436;2022-12-05T22:36:17;3.60;99.90
24436;DHT22;12616;52.470;13.436;2022-12-05T22:38:48;3.70;99.90
24436;DHT22;12616;52.470;13.436;2022-12-05T22:41:18;3.90;99.90
24436;DHT22;12616;52.470;13.436;2022-12-05T22:43:47;3.90;99.90
24436;DHT22;12616;52.470;13.436;2022-12-05T22:46:22;3.90;99.90
24436;DHT22;12616;52.470;13.436;2022-12-05T22:48:50;3.80;99.90
24436;DHT22;12616;52.470;13.436;2022-12-05T22:51:20;3.70;99.90
24436;DHT22;12616;52.470;13.436;2022-12-05T22:53:51;3.70;99.90